createdAt,value
2018-09-05T00:00:14.255Z,17.83
2018-09-05T00:02:46.773Z,19.43
2018-09-05T00:05:19.498Z,22.77
2018-09-05T00:07:52.057Z,24.83
2018-09-05T00:10:24.666Z,27.43
2018-09-05T00:12:57.256Z,28.10
2018-09-05T00:15:29.766Z,26.13
2018-09-05T00:18:02.536Z,23.63
2018-09-05T00:20:35.400Z,24.97
2018-09-05T00:23:08.510Z,24.30
2018-09-05T00:25:41.426Z,26.37
2018-09-05T00:28:14.157Z,30.60
2018-09-05T00:30:46.739Z,30.30
2018-09-05T00:33:21.336Z,30.97
2018-09-05T00:35:54.395Z,29.13
2018-09-05T00:38:27.089Z,31.67
2018-09-05T00:40:59.742Z,31.87
2018-09-05T00:43:32.530Z,32.97
2018-09-05T00:46:05.867Z,33.70
2018-09-05T00:48:38.554Z,33.73
2018-09-05T00:51:11.284Z,36.73
2018-09-05T00:53:44.197Z,38.27
2018-09-05T00:56:17.056Z,40.67
2018-09-05T00:58:49.956Z,36.37
2018-09-05T01:01:22.951Z,38.43
2018-09-05T01:03:55.673Z,39.40
2018-09-05T01:06:28.338Z,38.90
2018-09-05T01:10:29.662Z,34.30
2018-09-05T01:13:02.340Z,30.57
2018-09-05T01:15:35.228Z,29.57
2018-09-05T01:18:09.335Z,32.20
2018-09-05T01:20:42.205Z,39.77
2018-09-05T01:23:15.722Z,39.17
2018-09-05T01:25:48.872Z,40.03
2018-09-05T01:28:22.013Z,34.23
2018-09-05T01:30:55.653Z,33.97
2018-09-05T01:33:28.681Z,37.80
2018-09-05T01:36:06.504Z,49.07
2018-09-05T01:38:39.860Z,38.43
2018-09-05T01:41:13.463Z,41.70
2018-09-05T01:43:47.876Z,37.43
2018-09-05T01:46:30.075Z,40.30
2018-09-05T01:49:13.864Z,43.00
2018-09-05T01:54:43.038Z,38.93
2018-09-05T01:57:17.243Z,41.07
2018-09-05T01:59:49.839Z,40.83
2018-09-05T02:02:22.508Z,41.40
2018-09-05T02:04:55.185Z,94.33
2018-09-05T02:07:28.011Z,227.37
2018-09-05T02:10:00.425Z,207.43
2018-09-05T02:12:33.258Z,209.97
2018-09-05T02:15:06.793Z,248.47
2018-09-05T02:17:40.143Z,160.60
2018-09-05T02:20:13.355Z,140.27
2018-09-05T02:22:45.553Z,99.60
2018-09-05T02:25:18.193Z,97.07
2018-09-05T02:27:50.533Z,148.30
2018-09-05T02:30:22.656Z,123.67
2018-09-05T02:32:54.811Z,76.10
2018-09-05T02:35:26.941Z,65.83
2018-09-05T02:37:59.235Z,44.90
2018-09-05T02:40:31.401Z,44.63
2018-09-05T02:43:03.553Z,44.90
2018-09-05T02:45:35.684Z,44.03
2018-09-05T02:48:07.973Z,42.70
2018-09-05T02:50:42.724Z,43.20
2018-09-05T02:53:14.962Z,40.47
2018-09-05T02:55:51.516Z,40.83
2018-09-05T02:58:24.911Z,44.23
2018-09-05T03:00:56.983Z,37.57
2018-09-05T03:03:29.357Z,35.97
2018-09-05T03:06:01.558Z,33.73
2018-09-05T03:08:33.708Z,35.47
2018-09-05T03:11:05.863Z,30.70
2018-09-05T03:13:37.957Z,39.38
2018-09-05T03:16:10.670Z,38.73
2018-09-05T03:18:42.831Z,40.37
2018-09-05T03:21:14.993Z,41.95
2018-09-05T03:23:47.146Z,36.13
2018-09-05T03:26:19.290Z,34.97
2018-09-05T03:28:51.488Z,29.50
2018-09-05T03:31:23.736Z,29.63
2018-09-05T03:33:55.830Z,32.37
2018-09-05T03:36:28.089Z,38.63
2018-09-05T03:39:00.433Z,29.23
2018-09-05T03:41:32.632Z,31.80
2018-09-05T03:44:04.819Z,29.63
2018-09-05T03:46:36.932Z,27.53
2018-09-05T03:49:09.037Z,25.57
2018-09-05T03:51:41.167Z,26.70
2018-09-05T03:54:13.361Z,25.20
2018-09-05T03:56:45.590Z,21.63
2018-09-05T03:59:17.817Z,28.38
2018-09-05T04:01:49.876Z,21.07
2018-09-05T04:04:22.026Z,18.80
2018-09-05T04:06:54.207Z,18.43
2018-09-05T04:09:26.468Z,15.47
2018-09-05T04:11:59.944Z,15.00
2018-09-05T04:14:32.432Z,13.63
2018-09-05T04:17:04.525Z,13.83
2018-09-05T04:19:36.876Z,12.03
2018-09-05T04:22:09.103Z,11.97
2018-09-05T04:24:41.233Z,12.37
2018-09-05T04:27:13.480Z,12.73
2018-09-05T04:29:45.601Z,13.33
2018-09-05T04:32:17.760Z,12.77
2018-09-05T04:34:49.877Z,12.57
2018-09-05T04:37:21.922Z,20.00
2018-09-05T04:39:54.037Z,62.80
2018-09-05T04:42:26.329Z,59.67
2018-09-05T04:44:58.602Z,39.43
2018-09-05T04:47:30.603Z,30.93
2018-09-05T04:50:02.787Z,28.70
2018-09-05T04:52:34.963Z,19.90
2018-09-05T04:55:07.245Z,32.10
2018-09-05T04:57:39.407Z,108.60
2018-09-05T05:00:11.884Z,110.63
2018-09-05T05:02:44.362Z,81.77
2018-09-05T05:05:16.705Z,75.70
2018-09-05T05:07:49.618Z,57.13
2018-09-05T05:10:21.878Z,38.57
2018-09-05T05:12:54.007Z,36.77
2018-09-05T05:15:26.118Z,51.03
2018-09-05T05:17:58.340Z,37.37
2018-09-05T05:20:31.178Z,20.53
2018-09-05T05:23:04.314Z,15.80
2018-09-05T05:25:42.431Z,13.03
2018-09-05T05:28:19.990Z,12.13
2018-09-05T05:30:55.729Z,11.00
2018-09-05T05:33:30.003Z,11.40
2018-09-05T05:36:02.107Z,12.27
2018-09-05T05:38:34.643Z,12.53
2018-09-05T05:41:07.109Z,12.50
2018-09-05T05:43:39.207Z,14.70
2018-09-05T05:46:11.777Z,13.90
2018-09-05T05:48:44.709Z,12.70
2018-09-05T05:51:17.011Z,13.10
2018-09-05T05:53:49.215Z,11.57
2018-09-05T05:56:21.312Z,11.23
2018-09-05T05:58:53.537Z,10.93
2018-09-05T06:01:25.596Z,11.07
2018-09-05T06:03:57.718Z,10.30
2018-09-05T06:06:29.924Z,11.20
2018-09-05T06:09:02.180Z,11.87
2018-09-05T06:11:34.358Z,10.40
2018-09-05T06:14:06.482Z,12.18
2018-09-05T06:16:38.642Z,11.33
2018-09-05T06:19:11.255Z,11.60
2018-09-05T06:21:44.301Z,11.93
2018-09-05T06:24:16.542Z,12.20
2018-09-05T06:26:48.811Z,11.93
2018-09-05T06:29:21.458Z,10.77
2018-09-05T06:31:53.633Z,11.07
2018-09-05T06:34:25.752Z,10.83
2018-09-05T06:36:57.877Z,11.67
2018-09-05T06:39:30.125Z,12.10
2018-09-05T06:42:02.512Z,11.20
2018-09-05T06:44:34.718Z,10.47
2018-09-05T06:47:06.849Z,13.00
2018-09-05T06:49:39.014Z,9.27
2018-09-05T06:52:11.221Z,9.30
2018-09-05T06:54:43.344Z,9.47
2018-09-05T06:57:15.476Z,10.00
2018-09-05T06:59:48.553Z,10.50
2018-09-05T07:02:20.650Z,10.30
2018-09-05T07:04:53.389Z,10.03
2018-09-05T07:07:25.808Z,10.77
2018-09-05T07:09:58.060Z,12.33
2018-09-05T07:12:30.225Z,11.10
2018-09-05T07:15:02.456Z,10.50
2018-09-05T07:17:34.643Z,10.17
2018-09-05T07:20:06.914Z,9.90
2018-09-05T07:22:39.004Z,10.27
2018-09-05T07:25:11.131Z,11.87
2018-09-05T07:27:43.221Z,11.13
2018-09-05T07:30:17.472Z,10.87
2018-09-05T07:32:49.641Z,10.80
2018-09-05T07:35:21.896Z,11.03
2018-09-05T07:37:53.913Z,10.13
2018-09-05T07:40:26.109Z,10.70
2018-09-05T07:42:58.152Z,9.97
2018-09-05T07:45:30.407Z,10.00
2018-09-05T07:48:02.622Z,9.77
2018-09-05T07:50:34.896Z,11.03
2018-09-05T07:53:06.920Z,10.73
2018-09-05T07:55:39.066Z,10.28
2018-09-05T07:58:11.120Z,10.10
2018-09-05T08:00:43.822Z,10.87
2018-09-05T08:03:15.977Z,11.17
2018-09-05T08:05:48.106Z,12.53
2018-09-05T08:08:20.194Z,11.40
2018-09-05T08:10:57.748Z,9.50
2018-09-05T08:13:40.263Z,9.80
2018-09-05T08:16:23.057Z,9.10
2018-09-05T08:19:04.234Z,8.40
2018-09-05T08:21:47.222Z,10.40
2018-09-05T08:24:29.583Z,14.47
2018-09-05T08:27:01.711Z,9.50
2018-09-05T08:29:34.038Z,9.93
2018-09-05T08:32:06.145Z,10.33
2018-09-05T08:34:38.359Z,9.83
2018-09-05T08:37:26.103Z,10.60
2018-09-05T08:40:01.031Z,11.23
2018-09-05T08:42:35.257Z,10.47
2018-09-05T08:45:08.160Z,10.20
2018-09-05T08:47:40.609Z,9.67
2018-09-05T08:50:12.733Z,11.53
2018-09-05T08:52:44.929Z,11.47
2018-09-05T08:55:17.174Z,11.30
2018-09-05T08:57:49.439Z,9.80
2018-09-05T09:00:21.558Z,9.87
2018-09-05T09:02:53.719Z,9.58
2018-09-05T09:05:25.940Z,8.53
2018-09-05T09:07:58.272Z,8.63
2018-09-05T09:10:30.316Z,8.70
2018-09-05T09:13:02.440Z,8.93
2018-09-05T09:15:34.911Z,8.47
2018-09-05T09:18:07.308Z,9.17
2018-09-05T09:20:39.570Z,9.78
2018-09-05T09:23:11.798Z,9.40
2018-09-05T09:25:43.896Z,9.67
2018-09-05T09:28:16.199Z,13.70
2018-09-05T09:30:48.445Z,10.90
2018-09-05T09:33:20.615Z,10.03
2018-09-05T09:35:52.771Z,8.80
2018-09-05T09:38:24.934Z,17.77
2018-09-05T09:40:57.119Z,9.23
2018-09-05T09:43:29.267Z,10.07
2018-09-05T09:46:01.523Z,9.97
2018-09-05T09:48:34.116Z,9.13
2018-09-05T09:51:06.343Z,10.37
2018-09-05T09:53:38.561Z,11.37
2018-09-05T09:56:10.711Z,13.03
2018-09-05T09:58:42.784Z,10.67
2018-09-05T10:01:20.305Z,12.60
2018-09-05T10:03:56.963Z,10.03
2018-09-05T10:06:33.539Z,9.20
2018-09-05T10:09:10.907Z,13.03
2018-09-05T10:11:47.573Z,10.10
2018-09-05T10:14:24.195Z,14.63
2018-09-05T10:17:03.243Z,32.43
2018-09-05T10:19:36.184Z,10.43
2018-09-05T10:22:08.361Z,12.40
2018-09-05T10:24:44.282Z,12.10
2018-09-05T10:27:16.490Z,11.80
2018-09-05T10:29:48.727Z,14.50
2018-09-05T10:32:20.851Z,17.13
2018-09-05T10:34:53.064Z,17.77
2018-09-05T10:37:25.622Z,18.60
2018-09-05T10:39:57.789Z,15.33
2018-09-05T10:42:29.903Z,14.47
2018-09-05T10:45:02.387Z,19.07
2018-09-05T10:47:34.563Z,17.50
2018-09-05T10:50:06.702Z,16.97
2018-09-05T10:52:48.195Z,18.73
2018-09-05T10:55:28.992Z,21.42
2018-09-05T10:58:05.367Z,20.13
2018-09-05T11:00:37.646Z,26.47
2018-09-05T11:03:10.207Z,24.90
2018-09-05T11:05:42.267Z,22.70
2018-09-05T11:08:15.497Z,32.27
2018-09-05T11:10:51.922Z,24.67
2018-09-05T11:13:24.082Z,18.93
2018-09-05T11:15:56.461Z,20.20
2018-09-05T11:18:28.673Z,21.37
2018-09-05T11:21:00.943Z,22.30
2018-09-05T11:23:33.125Z,24.63
2018-09-05T11:26:05.805Z,21.63
2018-09-05T11:28:38.146Z,19.60
2018-09-05T11:31:10.634Z,27.30
2018-09-05T11:33:43.672Z,22.43
2018-09-05T11:36:15.872Z,21.60
2018-09-05T11:38:48.084Z,17.53
2018-09-05T11:41:20.369Z,17.70
2018-09-05T11:43:53.085Z,22.07
2018-09-05T11:46:25.156Z,24.32
2018-09-05T11:48:58.445Z,28.20
2018-09-05T11:51:30.696Z,28.57
2018-09-05T11:54:02.896Z,44.07
2018-09-05T11:56:35.254Z,53.23
2018-09-05T11:59:08.187Z,37.10
2018-09-05T12:01:40.349Z,34.40
2018-09-05T12:04:13.408Z,27.73
2018-09-05T12:06:46.381Z,35.27
2018-09-05T12:09:19.081Z,25.73
2018-09-05T12:11:52.438Z,21.43
2018-09-05T12:14:24.438Z,22.43
2018-09-05T12:16:56.856Z,19.37
2018-09-05T12:19:33.775Z,18.60
2018-09-05T12:22:16.782Z,20.82
2018-09-05T12:25:01.475Z,63.90
2018-09-05T12:27:44.287Z,29.67
2018-09-05T12:30:29.392Z,24.20
2018-09-05T12:33:12.467Z,33.00
2018-09-05T12:35:45.009Z,25.65
2018-09-05T12:38:29.053Z,35.17
2018-09-05T12:41:13.640Z,23.73
2018-09-05T12:43:46.021Z,20.37
2018-09-05T12:46:18.202Z,25.43
2018-09-05T12:48:50.293Z,20.23
2018-09-05T12:51:22.679Z,20.63
2018-09-05T12:53:55.914Z,18.43
2018-09-05T12:56:28.285Z,15.57
2018-09-05T12:59:03.361Z,18.85
2018-09-05T13:01:35.723Z,13.53
2018-09-05T13:04:08.116Z,13.27
2018-09-05T13:06:40.476Z,16.57
2018-09-05T13:09:15.242Z,17.93
2018-09-05T13:11:47.336Z,16.60
2018-09-05T13:14:19.823Z,17.60
2018-09-05T13:16:52.385Z,18.30
2018-09-05T13:39:37.300Z,16.50
2018-09-05T13:42:10.555Z,19.50
2018-09-05T13:44:43.131Z,26.03
2018-09-05T13:47:15.374Z,25.33
2018-09-05T13:49:47.876Z,18.80
2018-09-05T13:52:23.456Z,19.13
2018-09-05T13:54:55.746Z,17.33
2018-09-05T13:57:28.714Z,17.80
2018-09-05T14:00:01.045Z,15.28
2018-09-05T14:02:34.091Z,16.73
2018-09-05T14:05:06.591Z,23.10
2018-09-05T14:07:39.305Z,15.27
2018-09-05T14:10:11.556Z,10.53
2018-09-05T14:12:44.474Z,10.53
2018-09-05T14:15:17.214Z,16.07
2018-09-05T14:17:49.343Z,18.20
2018-09-05T14:20:22.227Z,14.17
2018-09-05T14:22:56.009Z,20.77
2018-09-05T14:28:27.462Z,12.23
2018-09-05T14:31:10.050Z,12.47
2018-09-05T14:33:44.376Z,8.30
2018-09-05T14:36:22.310Z,19.83
2018-09-05T14:38:59.458Z,8.90
2018-09-05T14:41:36.096Z,10.10
2018-09-05T14:44:09.039Z,12.87
2018-09-05T14:46:46.304Z,9.87
2018-09-05T14:49:29.107Z,19.43
2018-09-05T14:52:11.476Z,8.87
2018-09-05T14:54:46.989Z,8.37
2018-09-05T14:57:27.150Z,11.07
2018-09-05T15:00:06.989Z,8.93
2018-09-05T15:02:43.507Z,9.97
2018-09-05T15:05:21.075Z,11.90
2018-09-05T15:07:58.068Z,9.57
2018-09-05T15:10:35.104Z,8.90
2018-09-05T15:13:13.235Z,17.20
2018-09-05T15:15:50.293Z,7.30
2018-09-05T15:18:29.901Z,9.70
2018-09-05T15:21:06.807Z,8.05
2018-09-05T15:23:46.059Z,27.57
2018-09-05T15:26:22.921Z,8.30
2018-09-05T15:29:01.278Z,8.57
2018-09-05T15:31:39.726Z,9.53
2018-09-05T15:34:24.799Z,15.40
2018-09-05T15:37:00.376Z,11.43
2018-09-05T15:39:37.796Z,27.13
2018-09-05T15:42:16.851Z,10.90
2018-09-05T15:44:54.609Z,7.47
2018-09-05T15:47:35.844Z,8.87
2018-09-05T15:50:14.625Z,13.37
2018-09-05T15:52:52.568Z,12.33
2018-09-05T15:55:30.359Z,22.80
2018-09-05T15:58:06.807Z,13.70
2018-09-05T16:00:49.081Z,10.83
2018-09-05T16:03:25.865Z,15.15
2018-09-05T16:06:02.342Z,8.40
2018-09-05T16:08:53.976Z,10.07
2018-09-05T16:11:29.466Z,14.27
2018-09-05T16:14:05.509Z,11.53
2018-09-05T16:16:44.061Z,8.87
2018-09-05T16:19:21.711Z,9.70
2018-09-05T16:21:57.255Z,17.47
2018-09-05T16:24:32.727Z,9.60
2018-09-05T16:27:13.947Z,7.17
2018-09-05T16:29:49.831Z,8.65
2018-09-05T16:32:26.755Z,6.63
2018-09-05T16:35:06.344Z,5.77
2018-09-05T16:37:41.452Z,10.72
2018-09-05T16:40:17.452Z,8.23
2018-09-05T16:42:57.282Z,10.63
2018-09-05T16:45:34.627Z,8.53
2018-09-05T16:48:11.353Z,7.07
2018-09-05T16:50:47.373Z,5.73
2018-09-05T16:53:28.093Z,6.37
2018-09-05T16:56:04.821Z,7.50
2018-09-05T16:58:42.050Z,7.47
2018-09-05T17:01:16.984Z,7.37
2018-09-05T17:03:53.149Z,6.50
2018-09-05T17:06:26.540Z,6.63
2018-09-05T17:09:02.873Z,6.93
2018-09-05T17:11:41.811Z,8.07
2018-09-05T17:14:21.334Z,5.63
2018-09-05T17:17:03.737Z,9.13
2018-09-05T17:19:56.793Z,8.30
2018-09-05T17:22:38.954Z,6.17
2018-09-05T17:25:22.283Z,6.07
2018-09-05T17:28:03.198Z,6.40
2018-09-05T17:30:40.870Z,8.97
2018-09-05T17:33:21.097Z,5.93
2018-09-05T17:36:00.871Z,10.87
2018-09-05T17:38:41.567Z,10.90
2018-09-05T17:41:20.065Z,8.20
2018-09-05T17:43:56.547Z,13.17
2018-09-05T17:46:34.440Z,7.70
2018-09-05T17:49:11.966Z,6.07
2018-09-05T17:51:51.856Z,6.97
2018-09-05T17:54:28.248Z,7.73
2018-09-05T17:57:04.599Z,5.87
2018-09-05T17:59:40.462Z,6.10
2018-09-05T18:02:16.118Z,11.33
2018-09-05T18:04:51.789Z,7.78
2018-09-05T18:07:27.571Z,6.70
2018-09-05T18:10:04.255Z,8.70
2018-09-05T18:12:38.970Z,4.70
2018-09-05T18:15:15.191Z,6.63
2018-09-05T18:17:53.288Z,10.20
2018-09-05T18:20:30.070Z,8.17
2018-09-05T18:23:06.004Z,5.30
2018-09-05T18:25:42.535Z,4.63
2018-09-05T18:28:22.430Z,8.70
2018-09-05T18:30:57.737Z,7.43
2018-09-05T18:33:33.810Z,8.80
2018-09-05T18:36:11.611Z,6.20
2018-09-05T18:38:47.674Z,6.13
2018-09-05T18:41:24.322Z,7.28
2018-09-05T18:44:00.731Z,6.08
2018-09-05T18:46:37.485Z,7.65
2018-09-05T18:49:14.615Z,4.47
2018-09-05T18:51:51.784Z,6.62
2018-09-05T18:54:28.690Z,5.58
2018-09-05T18:57:09.853Z,6.10
2018-09-05T18:59:45.833Z,6.22
2018-09-05T19:02:22.040Z,4.90
2018-09-05T19:04:59.182Z,4.70
2018-09-05T19:07:34.872Z,5.45
2018-09-05T19:10:11.371Z,5.50
2018-09-05T19:12:50.154Z,7.83
2018-09-05T19:15:25.998Z,5.20
2018-09-05T19:18:00.775Z,8.50
2018-09-05T19:20:33.479Z,4.70
2018-09-05T19:23:07.122Z,8.73
2018-09-05T19:25:40.191Z,7.33
2018-09-05T19:28:12.908Z,5.83
2018-09-05T19:30:45.891Z,9.28
2018-09-05T19:33:19.361Z,6.53
2018-09-05T19:35:53.549Z,4.80
2018-09-05T19:38:30.955Z,4.58
2018-09-05T19:41:06.034Z,5.15
2018-09-05T19:43:39.795Z,7.45
2018-09-05T19:46:12.522Z,5.10
2018-09-05T19:48:45.843Z,5.35
2018-09-05T19:51:18.748Z,7.30
2018-09-05T19:53:51.922Z,6.03
2018-09-05T19:56:27.430Z,5.50
2018-09-05T19:59:00.758Z,5.53
2018-09-05T20:01:36.030Z,5.37
2018-09-05T20:04:11.032Z,6.60
2018-09-05T20:06:44.206Z,4.20
2018-09-05T20:09:18.679Z,7.75
2018-09-05T20:11:52.244Z,4.67
2018-09-05T20:14:25.010Z,6.67
2018-09-05T20:16:57.938Z,5.80
2018-09-05T20:19:34.597Z,5.60
2018-09-05T20:22:15.318Z,5.30
2018-09-05T20:24:51.996Z,4.78
2018-09-05T20:27:28.774Z,6.50
2018-09-05T20:30:05.287Z,14.20
2018-09-05T20:32:41.069Z,5.35
2018-09-05T20:35:17.403Z,7.95
2018-09-05T20:37:54.109Z,7.50
2018-09-05T20:40:30.556Z,7.25
2018-09-05T20:43:07.045Z,6.83
2018-09-05T20:45:53.910Z,6.30
2018-09-05T20:48:30.701Z,7.25
2018-09-05T20:51:06.590Z,8.38
2018-09-05T20:53:43.219Z,9.33
2018-09-05T20:56:19.936Z,6.70
2018-09-05T20:58:55.322Z,6.27
2018-09-05T21:01:31.642Z,6.72
2018-09-05T21:04:06.505Z,7.10
2018-09-05T21:06:43.048Z,4.50
2018-09-05T21:09:20.355Z,6.25
2018-09-05T21:11:57.218Z,6.53
2018-09-05T21:14:34.958Z,6.33
2018-09-05T21:17:13.420Z,7.00
2018-09-05T21:19:49.164Z,4.80
2018-09-05T21:22:29.256Z,8.05
2018-09-05T21:25:05.892Z,8.95
2018-09-05T21:27:39.838Z,5.95
2018-09-05T21:30:12.509Z,8.60
2018-09-05T21:32:45.205Z,8.20
2018-09-05T21:35:18.592Z,7.50
2018-09-05T21:37:51.838Z,7.28
2018-09-05T21:40:25.659Z,6.05
2018-09-05T21:42:58.545Z,7.03
2018-09-05T21:45:31.897Z,7.10
2018-09-05T21:48:06.632Z,7.00
2018-09-05T21:50:39.225Z,10.53
2018-09-05T21:53:12.078Z,5.40
2018-09-05T21:55:44.894Z,6.90
2018-09-05T21:58:17.800Z,7.85
2018-09-05T22:00:50.625Z,6.03
2018-09-05T22:03:23.249Z,5.33
2018-09-05T22:05:56.037Z,6.40
2018-09-05T22:08:37.591Z,7.70
2018-09-05T22:11:14.585Z,4.17
2018-09-05T22:13:47.992Z,5.90
2018-09-05T22:16:21.470Z,6.77
2018-09-05T22:18:54.630Z,7.00
2018-09-05T22:21:27.282Z,4.90
2018-09-05T22:37:45.629Z,5.53
2018-09-05T22:40:18.848Z,6.63
2018-09-05T22:43:00.753Z,4.80
2018-09-05T22:45:42.835Z,6.00
2018-09-05T22:48:47.219Z,7.33
2018-09-05T22:53:36.884Z,8.80
2018-09-05T22:56:23.153Z,14.15
2018-09-05T22:59:06.119Z,8.38
2018-09-05T23:04:02.854Z,10.10
2018-09-05T23:08:54.683Z,6.40
2018-09-05T23:12:03.001Z,6.03
2018-09-05T23:14:45.155Z,7.20
2018-09-05T23:17:27.211Z,6.80
2018-09-05T23:20:12.950Z,5.80
2018-09-05T23:23:55.744Z,8.17
2018-09-05T23:26:29.153Z,5.87
2018-09-05T23:31:55.169Z,6.37
2018-09-05T23:34:44.390Z,8.57
2018-09-05T23:37:57.225Z,6.70
2018-09-05T23:40:29.798Z,5.87
2018-09-05T23:43:04.386Z,6.63
2018-09-05T23:45:39.593Z,7.80
2018-09-05T23:48:12.507Z,6.27
2018-09-05T23:50:52.466Z,10.20
2018-09-05T23:53:26.151Z,9.33
2018-09-05T23:55:58.722Z,26.30
2018-09-05T23:58:32.385Z,7.30
